Etusivu
METAR-TAF:

METAR-TAF

Lentoasemat :

Whiteside County Airport (Jos. H. Bittorf Field)

Sterling / Rock Falls, Illinois, Yhdysvallat

Leveyspiiri: 41-45N, Pituuspiiri: 089-40W, korkeus merenpinnasta: 197 m

Tämänhetkinen sää

Tämä raportti tehtiin 54 minuuttia sitten, kello 04.56 UTC
Tuuli 4 kn idästä/kaakosta
Lämpötila 1°C
Kosteus 93%
Ilmanpaine 1008 hPa
Näkyvyys: 11.3 km
Muutamia pilviä 1400 ft:n korkeudessa
Pilvistä 8000 ft:n korkeudessa

METAR: KSQI 190456Z AUTO 11004KT 7SM FEW014 OVC080 01/00 A2976 RMK AO2 SLP945 T00110000 FZRANO

Aika: 23:50 (05:50 UTC)


TAF: puuttuu

Säähavainnot ja -ennusteet yli 4000 lentoasemalta (METAR- ja TAF-raportit).

Käytössä olevat sääasemat on merkitty karttaan keltaisilla ja punaisilla pisteillä.

Aseta hiiri pisteen päälle nähdäksesi sääaseman nimen.

Klikkaa sitten nähdäksesi säähavainnot ja -ennusteet.

Kartan vaihtaminen: klikkaa mustalla rastilla varustettuja vihreitä pisteitä, niin voit zoomata sisään; viivalla varustettua vihreää pistettä, niin voit zoomata ulos tai vihreitä nuolia, niin pääset viereisille kartoille.


METAR-TAF: